• Join FlightAware (Why Join?)
  • Login
  • US Flag 
10:42AM EDT


 

Airport Tracker/Info


-or-


 

Live Flight TrackerFlight Track Log ✈ N7054S ✈ 09-May-2013 ✈ KEYE - KAGC

Flight Track Log - Related Links

Times and Time Zones

All times are in EDT time to prevent confusion due to time zone crossing. See the N7054S flight status page for this flight to view local times or setup timezone preferences in your user account.

Time Position Orientation Groundspeed Altitude Reporting Facility
EDT Latitude Longitude Course Direction KTS MPH feet Rate Location/Type
04:33PM 39.8453 -86.2792 20° North 68 78 7,000  Level Indianapolis Center
04:34PM 39.8703 -86.2672 20° North 83 96 7,000 -1,920 Level Indianapolis Center
04:35PM 39.8875 -86.2314 58° Northeast 120 138 3,100 -2,460 Descending Indianapolis Center
04:35PM 39.9000 -86.2000 63° Northeast 142 163 3,100 300 Level Indianapolis TRACON
04:36PM 39.9167 -86.1667 57° Northeast 120 138 3,600 540 Climbing Indianapolis TRACON
04:37PM 39.9167 -86.1333 90° East 107 123 4,200 540 Climbing Indianapolis TRACON
04:38PM 39.9244 -86.1167 59° Northeast 115 132 4,500 600 Climbing Indianapolis Center
04:39PM 39.9292 -86.0681 83° East 114 131 5,200 600 Climbing Indianapolis Center
04:40PM 39.9314 -86.0275 86° East 112 129 5,800 540 Climbing Indianapolis Center
04:41PM 39.9339 -85.9872 85° East 112 129 6,400 480 Climbing Indianapolis Center
04:42PM 39.9364 -85.9472 85° East 112 129 6,900 300 Climbing Indianapolis Center
04:43PM 39.9381 -85.9044 87° East 115 132 7,100 60 Climbing Indianapolis Center
04:44PM 39.9386 -85.8544 89° East 131 151 7,100  Level Indianapolis Center
04:45PM 39.9397 -85.7931 89° East 139 160 7,100  Level Indianapolis Center
04:46PM 39.9431 -85.7408 85° East 143 165 7,100  Level Indianapolis Center
04:47PM 39.9456 -85.6900 86° East 143 165 7,100  Level Indianapolis Center
04:48PM 39.9486 -85.6389 86° East 142 163 7,100  Level Indianapolis Center
04:49PM 39.9511 -85.5861 86° East 144 166 7,100 -60 Level Indianapolis Center
04:50PM 39.9533 -85.5339 87° East 145 167 7,000  Descending Indianapolis Center
04:51PM 39.9547 -85.4725 88° East 143 165 7,100  Climbing Indianapolis Center
04:52PM 39.9572 -85.4225 86° East 141 162 7,100  Level Indianapolis Center
04:53PM 39.9608 -85.3711 85° East 141 162 7,100  Level Indianapolis Center
04:55PM 39.9644 -85.3197 85° East 143 165 7,100 60 Level Indianapolis Center
04:55PM 39.9658 -85.2944 86° East 147 169 7,200  Climbing Indianapolis Center
04:56PM 39.9656 -85.2675 91° East 144 166 7,100 -60 Descending Indianapolis Center
04:57PM 39.9683 -85.2089 86° East 139 160 7,100  Level Indianapolis Center
04:58PM 39.9683 -85.1583 90° East 139 160 7,200  Climbing Indianapolis Center
04:59PM 39.9719 -85.1044 85° East 142 163 7,200  Level Indianapolis Center
05:00PM 39.9753 -85.0556 85° East 143 165 7,200 -60 Level Indianapolis Center
05:01PM 39.9789 -85.0042 85° East 143 165 7,100  Descending Indianapolis Center
05:02PM 39.9814 -84.9450 87° East 144 166 7,200  Climbing Indianapolis Center
05:03PM 39.9858 -84.8936 84° East 146 168 7,100  Descending Indianapolis Center
05:04PM 39.9883 -84.8394 87° East 146 168 7,200  Climbing Indianapolis Center
05:05PM 39.9911 -84.7800 86° East 145 167 7,100 -60 Descending Indianapolis Center
05:06PM 39.9933 -84.7286 87° East 148 170 7,100  Level Indianapolis Center
05:07PM 39.9978 -84.6747 84° East 148 170 7,200  Climbing Indianapolis Center
05:08PM 40.0022 -84.6217 84° East 142 163 7,100 -120 Descending Indianapolis Center
05:09PM 40.0044 -84.5689 87° East 143 165 7,000 -60 Descending Indianapolis Center
05:10PM 40.0081 -84.5156 85° East 146 168 7,000  Level Indianapolis Center
05:11PM 40.0114 -84.4622 85° East 147 169 7,100  Climbing Indianapolis Center
05:12PM 40.0178 -84.4047 82° East 149 171 7,100  Level Indianapolis Center
05:13PM 40.0217 -84.3561 84° East 145 167 7,100  Level Indianapolis Center
05:14PM 40.0242 -84.2992 87° East 145 167 7,100  Level Indianapolis Center
05:15PM 40.0294 -84.2403 83° East 146 168 7,100  Level Indianapolis Center
05:16PM 40.0308 -84.1883 88° East 150 173 7,100 -60 Level Indianapolis Center
05:17PM 40.0347 -84.1322 85° East 147 169 7,000  Descending Indianapolis Center
05:18PM 40.0383 -84.0911 83° East 149 171 7,100  Climbing Indianapolis Center
05:18PM 40.0394 -84.0769 84° East 150 173 7,000  Descending Indianapolis Center
05:19PM 40.0431 -84.0319 84° East 149 171 7,100  Climbing Indianapolis Center
05:19PM 40.0450 -84.0139 82° East 150 173 7,000 60 Descending Indianapolis Center
05:20PM 40.0472 -83.9753 86° East 146 168 7,200 60 Climbing Indianapolis Center
05:20PM 40.0492 -83.9606 80° East 147 169 7,100  Descending Indianapolis Center
05:21PM 40.0511 -83.9267 86° East 149 171 7,200  Climbing Indianapolis Center
05:21PM 40.0542 -83.9061 79° East 148 170 7,100  Descending Indianapolis Center
05:22PM 40.0572 -83.8728 83° East 149 171 7,200  Climbing Indianapolis Center
05:22PM 40.0592 -83.8514 83° East 150 173 7,100 -120 Descending Indianapolis Center
05:23PM 40.0614 -83.8189 85° East 151 174 7,100 -120 Level Indianapolis Center
05:23PM 40.0653 -83.7964 77° East 151 174 7,000 60 Descending Indianapolis Center
05:24PM 40.0681 -83.7569 85° East 151 174 7,200  Climbing Indianapolis Center
05:25PM 40.0714 -83.7422 74° East 150 173 7,000  Descending Indianapolis Center
05:25PM 40.0742 -83.7033 85° East 146 168 7,200 60 Climbing Indianapolis Center
05:26PM 40.0769 -83.6886 76° East 148 170 7,100  Descending Indianapolis Center
05:26PM 40.0800 -83.6522 84° East 143 165 7,200  Climbing Indianapolis Center
05:27PM 40.0811 -83.6364 85° East 145 167 7,100  Descending Indianapolis Center
05:27PM 40.0836 -83.6036 84° East 146 168 7,200 -120 Climbing Indianapolis Center
05:28PM 40.0864 -83.5742 83° East 146 168 7,000 -120 Descending Indianapolis Center
05:28PM 40.0878 -83.5442 87° East 148 170 7,100 60 Climbing Indianapolis Center
05:29PM 40.0911 -83.5200 80° East 147 169 7,100  Level Indianapolis Center
05:29PM 40.0936 -83.4958 82° East 146 168 7,100  Level Indianapolis Center
05:30PM 40.0950 -83.4664 86° East 147 169 7,100  Level Indianapolis Center
05:31PM 40.0997 -83.4122 83° East 147 169 7,100  Level Indianapolis Center
05:33PM 40.1061 -83.3061 85° East 146 168 7,100  Level Indianapolis Center
05:33PM 40.1064 -83.2847 89° East 145 167 7,100  Level Indianapolis Center
05:34PM 40.1092 -83.2533 83° East 145 167 7,100  Level Indianapolis Center
05:35PM 40.1131 -83.2003 85° East 145 167 7,100  Level Indianapolis Center
05:35PM 40.1142 -83.1764 87° East 141 162 7,100  Level Indianapolis Center
05:36PM 40.1167 -83.1486 83° East 143 165 7,100  Level Indianapolis Center
05:37PM 40.1225 -83.0856 83° East 145 167 7,100  Level Indianapolis Center
05:38PM 40.1250 -83.0194 87° East 149 171 7,100  Level Indianapolis Center
05:39PM 40.1289 -82.9758 83° East 149 171 7,100  Level Indianapolis Center
05:40PM 40.1333 -82.9208 84° East 150 173 7,100  Level Indianapolis Center
05:41PM 40.1372 -82.8692 84° East 144 166 7,100  Level Indianapolis Center
05:42PM 40.1414 -82.8061 85° East 149 171 7,100  Level Indianapolis Center
05:43PM 40.1453 -82.7592 84° East 153 176 7,100  Level Indianapolis Center
05:43PM 40.1456 -82.7411 89° East 147 169 7,100  Level Indianapolis Center
05:44PM 40.1492 -82.6981 84° East 145 167 7,100 60 Level Indianapolis Center
05:44PM 40.1492 -82.6869 90° East 146 168 7,200  Climbing Indianapolis Center
05:45PM 40.1519 -82.6453 85° East 144 166 7,100 -60 Descending Indianapolis Center
05:46PM 40.1494 -82.5861 93° East 150 173 7,100  Level Indianapolis Center
05:47PM 40.1531 -82.5361 85° East 149 171 7,100  Level Indianapolis Center
05:48PM 40.1572 -82.4808 84° East 150 173 7,100  Level Indianapolis Center
05:49PM 40.1600 -82.4247 86° East 153 176 7,100  Level Indianapolis Center
05:50PM 40.1633 -82.3697 85° East 151 174 7,100  Level Indianapolis Center
05:51PM 40.1675 -82.3147 84° East 150 173 7,100  Level Indianapolis Center
05:52PM 40.1719 -82.2489 85° East 155 178 7,100 -60 Level Indianapolis Center
05:53PM 40.1747 -82.1933 86° East 152 175 7,000  Descending Indianapolis Center
05:54PM 40.1786 -82.1381 85° East 151 174 7,100  Climbing Indianapolis Center
05:56PM 40.1817 -82.0817 86° East 155 178 7,100  Level Indianapolis Center
05:57PM 40.1856 -82.0247 85° East 154 177 7,100  Level Indianapolis Center
05:58PM 40.1892 -81.9697 85° East 151 174 7,100  Level Indianapolis Center
05:59PM 40.1942 -81.9147 83° East 152 175 7,100  Level Indianapolis Center
06:00PM 40.2000 -81.8522 83° East 146 168 7,200  Climbing Indianapolis Center
06:01PM 40.2047 -81.7992 83° East 147 169 7,100 -60 Descending Indianapolis Center
06:02PM 40.2086 -81.7461 85° East 148 170 7,100  Level Indianapolis Center
06:03PM 40.2133 -81.6914 84° East 150 173 7,100  Level Indianapolis Center
06:04PM 40.2178 -81.6372 84° East 150 173 7,100  Level Indianapolis Center
06:05PM 40.2253 -81.5864 79° East 152 175 7,100  Level Cleveland Center
06:06PM 40.2278 -81.5322 87° East 152 175 7,100  Level Cleveland Center
06:07PM 40.2303 -81.4750 87° East 152 175 7,100  Level Cleveland Center
06:08PM 40.2328 -81.4233 86° East 152 175 7,100  Level Cleveland Center
06:09PM 40.2353 -81.3717 86° East 147 169 7,100  Level Cleveland Center
06:10PM 40.2356 -81.3200 90° East 142 163 7,100  Level Cleveland Center
06:11PM 40.2381 -81.2683 86° East 142 163 7,100  Level Cleveland Center
06:12PM 40.2406 -81.2142 87° East 142 163 7,100  Level Cleveland Center
06:13PM 40.2428 -81.1625 87° East 142 163 7,100 -360 Level Cleveland Center
06:14PM 40.2411 -81.1081 92° East 142 163 6,400 -660 Descending Cleveland Center
06:15PM 40.2456 -81.0508 84° East 142 163 5,800 -600 Descending Cleveland Center
06:16PM 40.2478 -80.9911 87° East 148 170 5,300 -420 Descending Cleveland Center
06:17PM 40.2500 -80.9394 87° East 148 170 5,000 -120 Descending Cleveland Center
06:18PM 40.2544 -80.8906 83° East 141 162 5,100  Climbing Cleveland Center
06:19PM 40.2608 -80.8389 81° East 141 162 5,100  Level Cleveland Center
06:20PM 40.2650 -80.7900 84° East 141 162 5,100  Level Cleveland Center
06:21PM 40.2714 -80.7381 81° East 141 162 5,100 -300 Level Cleveland Center
06:22PM 40.2778 -80.6864 81° East 141 162 4,600 -600 Descending Cleveland Center
06:23PM 40.2819 -80.6319 84° East 141 162 4,000 -360 Descending Cleveland Center
06:24PM 40.2881 -80.5831 81° East 141 162 3,900 -240 Descending Cleveland Center
06:25PM 40.2944 -80.5286 81° East 141 162 3,600 -420 Descending Cleveland Center
06:26PM 40.3006 -80.4714 82° East 141 162 3,100 -540 Descending Cleveland Center
06:28PM 40.3062 -80.3777 85° East  Level FlightAware Approximate
06:35PM 40.3340 -80.0208 79° East  Level FlightAware Approximate
06:36PM 40.3418 -79.9705 79° East  Level FlightAware Approximate
06:37PM 40.3494 -79.9202 79° East  Level FlightAware Approximate
06:38PM 40.3500 -79.9167 79° East  Level FlightAware Approximate
06:39PM 40.3544 -79.9302 79° East  Level Estimated
06:40PM 40.3544 -79.9302 79° East  Level Estimated
06:41PM 40.3544 -79.9302 79° East  Level Estimated
06:42PM 40.3544 -79.9302 79° East  Level Estimated
06:43PM 40.3544 -79.9302 79° East  Level Estimated
06:44PM 40.3544 -79.9302 79° East  Level Estimated
06:45PM 40.3544 -79.9302 79° East  Level Estimated
06:46PM 40.3544 -79.9302 79° East  Level Estimated
06:47PM 40.3544 -79.9302 79° East  Level Estimated
06:48PM 40.3544 -79.9302 79° East  Level Estimated